Time;durP1;ratioP1;P1;durP2;ratioP2;P2;SDS_P1;SDS_P2;PMS_P1;PMS_P2;Temp;Humidity;BMP_temperature;BMP_pressure;BME280_temperature;BME280_humidity;BME280_pressure;Samples;Min_cycle;Max_cycle;Signal;HPM_P1;HPM_P2
2022/04/22 00:00:08;;;;;;;;;;;;;;;11.75;100.00;101063.50;2613526;36;20065;-50
2022/04/22 00:02:38;;;;;;;;;;;;;;;11.80;100.00;101058.53;2615315;36;19990;-52
2022/04/22 00:05:06;;;;;;;;;;;;;;;11.75;100.00;101056.25;2615240;36;20369;-50
2022/04/22 00:07:35;;;;;;;;;;;;;;;11.82;100.00;101055.69;2615405;36;20045;-50
2022/04/22 00:10:03;;;;;;;;;;;;;;;11.92;100.00;101060.13;2614061;36;20074;-52
2022/04/22 00:12:31;;;;;;;;;;;;;;;11.86;100.00;101049.03;2615968;36;20435;-51
2022/04/22 00:14:59;;;;;;;;;;;;;;;11.87;100.00;101062.38;2615323;31;20042;-50
2022/04/22 00:17:29;;;;;;;;;;;;;;;11.88;100.00;101058.69;2615938;36;20022;-51
2022/04/22 00:19:57;;;;;;;;;;;;;;;11.82;100.00;101053.88;2615424;31;20475;-51
2022/04/22 00:22:26;;;;;;;;;;;;;;;11.86;100.00;101057.97;2616673;31;20468;-53
2022/04/22 00:24:53;;;;;;;;;;;;;;;11.86;100.00;101049.88;2615049;36;19951;-55
2022/04/22 00:27:22;;;;;;;;;;;;;;;11.76;100.00;101046.31;2616350;31;20396;-57
2022/04/22 00:29:49;;;;;;;;;;;;;;;11.91;100.00;101050.31;2614488;31;20030;-52
2022/04/22 00:32:17;;;;;;;;;;;;;;;11.92;100.00;101037.66;2616263;31;20041;-54
2022/04/22 00:34:48;;;;;;;;;;;;;;;11.91;100.00;101042.22;2614811;36;19977;-56
2022/04/22 00:37:16;;;;;;;;;;;;;;;11.74;100.00;101051.84;2615956;36;19957;-52
2022/04/22 00:39:44;;;;;;;;;;;;;;;11.65;100.00;101035.66;2614879;36;20433;-51
2022/04/22 00:42:13;;;;;;;;;;;;;;;11.57;100.00;101042.59;2615168;36;20077;-52
2022/04/22 00:44:41;;;;;;;;;;;;;;;11.55;100.00;101046.41;2614659;36;20033;-50
2022/04/22 00:47:09;;;;;;;;;;;;;;;11.56;100.00;101048.97;2615821;36;20051;-47
2022/04/22 00:49:37;;;;;;;;;;;;;;;11.60;100.00;101037.91;2615495;36;20079;-49
2022/04/22 00:52:08;;;;;;;;;;;;;;;11.51;100.00;101037.75;2615062;36;20057;-50
2022/04/22 00:54:36;;;;;;;;;;;;;;;11.52;100.00;101034.06;2614825;36;19951;-49
2022/04/22 00:57:04;;;;;;;;;;;;;;;11.45;100.00;101029.34;2615227;36;20057;-52
2022/04/22 00:59:34;;;;;;;;;;;;;;;11.36;100.00;101026.50;2614815;36;20034;-51
2022/04/22 01:02:02;;;;;;;;;;;;;;;11.31;100.00;101022.53;2614327;36;20431;-51
2022/04/22 01:09:56;;;;;;;;;;;;;;;11.45;100.00;101011.34;2613482;36;19966;-48
2022/04/22 01:12:24;;;;;;;;;;;;;;;11.36;100.00;101010.31;2614360;36;19947;-52
2022/04/22 01:14:52;;;;;;;;;;;;;;;11.31;100.00;101000.97;2615752;31;20415;-51
2022/04/22 01:17:21;;;;;;;;;;;;;;;11.18;100.00;101002.03;2615322;36;19981;-52
2022/04/22 01:19:49;;;;;;;;;;;;;;;11.08;100.00;101006.53;2615314;36;19947;-52
2022/04/22 01:22:19;;;;;;;;;;;;;;;11.10;100.00;101007.28;2615150;36;20581;-49
2022/04/22 01:24:47;;;;;;;;;;;;;;;11.00;100.00;100998.31;2615262;36;20325;-55
2022/04/22 01:27:16;;;;;;;;;;;;;;;10.87;100.00;101004.75;2615669;36;20033;-51
2022/04/22 01:29:44;;;;;;;;;;;;;;;10.74;100.00;101004.13;2614008;36;20037;-50
2022/04/22 01:32:13;;;;;;;;;;;;;;;10.83;100.00;101000.63;2614753;36;20034;-47
2022/04/22 01:34:42;;;;;;;;;;;;;;;10.76;100.00;100996.78;2614404;31;20836;-54
2022/04/22 01:37:11;;;;;;;;;;;;;;;10.60;100.00;100996.38;2614140;36;19950;-55
2022/04/22 01:39:41;;;;;;;;;;;;;;;10.54;100.00;100994.22;2614622;36;19955;-50
2022/04/22 01:42:10;;;;;;;;;;;;;;;10.44;100.00;100997.72;2615999;31;20459;-50
2022/04/22 01:44:38;;;;;;;;;;;;;;;10.42;100.00;100999.69;2614840;36;19993;-56
2022/04/22 01:47:07;;;;;;;;;;;;;;;10.30;100.00;101001.56;2614779;36;19985;-56
2022/04/22 01:49:35;;;;;;;;;;;;;;;10.32;100.00;101004.09;2613772;36;20001;-51
2022/04/22 01:52:03;;;;;;;;;;;;;;;10.30;100.00;101003.41;2615165;36;20082;-52
2022/04/22 01:54:31;;;;;;;;;;;;;;;10.26;100.00;101000.13;2614695;36;19951;-51
2022/04/22 01:57:01;;;;;;;;;;;;;;;10.24;100.00;101001.25;2614626;36;20059;-53
2022/04/22 01:59:29;;;;;;;;;;;;;;;10.16;100.00;100994.66;2614779;36;19969;-51
2022/04/22 02:01:58;;;;;;;;;;;;;;;10.15;100.00;100992.94;2614355;31;20405;-53
2022/04/22 02:04:26;;;;;;;;;;;;;;;10.16;100.00;100991.13;2615069;36;19958;-53
2022/04/22 02:06:54;;;;;;;;;;;;;;;10.07;100.00;100990.09;2615443;36;20065;-48
2022/04/22 02:09:22;;;;;;;;;;;;;;;10.07;100.00;100991.91;2614224;36;20030;-52
2022/04/22 02:11:50;;;;;;;;;;;;;;;10.07;100.00;100990.09;2615011;31;20029;-50
2022/04/22 02:14:21;;;;;;;;;;;;;;;10.10;100.00;100989.81;2614650;36;19953;-52
2022/04/22 02:16:49;;;;;;;;;;;;;;;10.03;100.00;100985.09;2614796;36;20178;-53
2022/04/22 02:19:18;;;;;;;;;;;;;;;10.04;100.00;100982.28;2615114;36;20463;-53
2022/04/22 02:21:46;;;;;;;;;;;;;;;9.92;100.00;100985.97;2616231;36;19957;-54
2022/04/22 02:24:14;;;;;;;;;;;;;;;9.97;100.00;100983.78;2615355;36;19947;-53
2022/04/22 02:29:26;;;;;;;;;;;;;;;9.87;100.00;100981.00;2615914;36;19954;-54
2022/04/22 02:31:54;;;;;;;;;;;;;;;9.89;100.00;100978.16;2615349;36;20152;-49
2022/04/22 02:34:22;;;;;;;;;;;;;;;9.88;100.00;100980.03;2615871;31;19961;-50
2022/04/22 02:36:50;;;;;;;;;;;;;;;9.87;100.00;100975.63;2615322;36;19967;-49
2022/04/22 02:39:19;;;;;;;;;;;;;;;9.82;100.00;100977.84;2615732;36;20347;-51
2022/04/22 02:47:11;;;;;;;;;;;;;;;9.61;100.00;100977.78;2615317;36;20355;-54
2022/04/22 02:49:43;;;;;;;;;;;;;;;9.55;100.00;100975.59;2616043;31;20407;-51
2022/04/22 02:52:11;;;;;;;;;;;;;;;9.57;100.00;100976.31;2615616;36;20354;-53
2022/04/22 02:54:39;;;;;;;;;;;;;;;9.68;100.00;100972.75;2615525;36;20025;-49
2022/04/22 02:57:07;;;;;;;;;;;;;;;9.60;100.00;100971.56;2616152;36;19958;-52
2022/04/22 02:59:39;;;;;;;;;;;;;;;9.59;100.00;100969.00;2615951;36;20472;-50
2022/04/22 03:02:08;;;;;;;;;;;;;;;9.56;100.00;100974.63;2614517;36;20306;-50
2022/04/22 03:04:36;;;;;;;;;;;;;;;9.51;100.00;100971.47;2615993;36;19977;-55
2022/04/22 03:07:04;;;;;;;;;;;;;;;9.54;100.00;100979.25;2615733;36;19999;-52
2022/04/22 03:09:32;;;;;;;;;;;;;;;9.56;100.00;100978.16;2614997;36;20033;-51
2022/04/22 03:12:00;;;;;;;;;;;;;;;9.50;100.00;100978.69;2614891;36;19962;-54
2022/04/22 03:14:29;;;;;;;;;;;;;;;9.49;100.00;100978.81;2615531;31;20038;-50
2022/04/22 03:16:59;;;;;;;;;;;;;;;9.47;100.00;100987.84;2615213;36;20435;-55
2022/04/22 03:19:28;;;;;;;;;;;;;;;9.47;100.00;100985.16;2615588;31;19958;-54
2022/04/22 03:21:56;;;;;;;;;;;;;;;9.44;100.00;100982.72;2616013;36;20236;-49
2022/04/22 03:24:24;;;;;;;;;;;;;;;9.34;100.00;100981.75;2615206;36;20652;-55
2022/04/22 03:26:52;;;;;;;;;;;;;;;9.27;100.00;100969.81;2615406;36;19978;-50
2022/04/22 03:29:20;;;;;;;;;;;;;;;9.14;100.00;100971.78;2614730;36;19955;-51
2022/04/22 03:31:48;;;;;;;;;;;;;;;9.10;100.00;100969.34;2614070;36;20034;-54
2022/04/22 03:34:18;;;;;;;;;;;;;;;9.03;100.00;100976.19;2616053;31;20002;-53
2022/04/22 03:36:46;;;;;;;;;;;;;;;9.01;100.00;100974.59;2615766;36;20062;-51
2022/04/22 03:39:14;;;;;;;;;;;;;;;8.95;100.00;100975.94;2615599;36;19954;-50
2022/04/22 03:41:42;;;;;;;;;;;;;;;8.91;100.00;100964.59;2615172;36;19950;-50
2022/04/22 03:44:10;;;;;;;;;;;;;;;8.99;100.00;100968.50;2614822;36;20042;-52
2022/04/22 03:46:38;;;;;;;;;;;;;;;9.02;100.00;100971.78;2614130;36;19961;-53
2022/04/22 03:49:09;;;;;;;;;;;;;;;8.96;100.00;100971.44;2616805;36;20029;-50
2022/04/22 03:51:40;;;;;;;;;;;;;;;8.92;100.00;100973.50;2614944;36;20416;-51
2022/04/22 03:54:08;;;;;;;;;;;;;;;8.87;100.00;100975.72;2615212;36;19950;-54
2022/04/22 03:59:17;;;;;;;;;;;;;;;8.85;100.00;100973.16;2615319;36;19985;-54
2022/04/22 04:01:45;;;;;;;;;;;;;;;8.72;100.00;100973.25;2614655;36;20049;-55
2022/04/22 04:04:13;;;;;;;;;;;;;;;8.66;100.00;100971.06;2615976;31;19945;-51
2022/04/22 04:06:43;;;;;;;;;;;;;;;8.59;100.00;100975.22;2615251;36;19963;-53
2022/04/22 04:17:15;;;;;;;;;;;;;;;8.50;100.00;100959.84;2615131;36;19947;-50
2022/04/22 04:25:08;;;;;;;;;;;;;;;8.49;100.00;100952.75;2615781;36;19947;-49
2022/04/22 04:27:36;;;;;;;;;;;;;;;8.55;100.00;100960.31;2615167;36;19939;-54
2022/04/22 04:30:05;;;;;;;;;;;;;;;8.49;100.00;100955.44;2604854;36;20029;-50
2022/04/22 04:32:34;;;;;;;;;;;;;;;8.43;100.00;100959.41;2614895;31;19950;-53
2022/04/22 04:35:02;;;;;;;;;;;;;;;8.49;100.00;100964.34;2615010;36;20022;-52
2022/04/22 04:37:32;;;;;;;;;;;;;;;8.47;100.00;100960.09;2615852;36;19955;-54
2022/04/22 04:40:00;;;;;;;;;;;;;;;8.45;100.00;100956.66;2615104;36;20099;-56
2022/04/22 04:42:28;;;;;;;;;;;;;;;8.41;100.00;100956.84;2614626;36;20042;-53
2022/04/22 04:44:56;;;;;;;;;;;;;;;8.55;100.00;100949.59;2615542;36;19989;-50
2022/04/22 04:47:24;;;;;;;;;;;;;;;8.43;100.00;100959.41;2614267;36;20034;-54
2022/04/22 04:49:52;;;;;;;;;;;;;;;8.39;100.00;100966.88;2614866;36;20086;-52
2022/04/22 04:52:21;;;;;;;;;;;;;;;8.39;100.00;100961.50;2615093;31;19939;-51
2022/04/22 04:54:51;;;;;;;;;;;;;;;8.35;100.00;100957.34;2615449;36;19962;-49
2022/04/22 04:57:19;;;;;;;;;;;;;;;8.39;100.00;100955.25;2615707;36;20336;-49
2022/04/22 04:59:47;;;;;;;;;;;;;;;8.43;100.00;100967.47;2614083;36;20047;-50
2022/04/22 05:02:15;;;;;;;;;;;;;;;8.40;100.00;100960.50;2614789;31;20673;-48
2022/04/22 05:04:43;;;;;;;;;;;;;;;8.42;100.00;100955.91;2616261;31;20045;-51
2022/04/22 05:07:11;;;;;;;;;;;;;;;8.35;100.00;100956.50;2614853;31;19984;-49
2022/04/22 05:09:39;;;;;;;;;;;;;;;8.31;100.00;100963.91;2613498;31;20541;-52
2022/04/22 05:12:12;;;;;;;;;;;;;;;8.46;100.00;100955.69;2615876;31;19957;-55
2022/04/22 05:14:40;;;;;;;;;;;;;;;8.42;100.00;100957.69;2614730;36;20448;-54
2022/04/22 05:17:08;;;;;;;;;;;;;;;8.49;100.00;100958.13;2615184;36;19972;-54
2022/04/22 05:19:36;;;;;;;;;;;;;;;8.51;100.00;100961.53;2615264;36;19950;-51
2022/04/22 05:22:04;;;;;;;;;;;;;;;8.56;100.00;100959.34;2613676;36;20539;-51
2022/04/22 05:24:34;;;;;;;;;;;;;;;8.56;100.00;100960.19;2614241;36;20042;-54
2022/04/22 05:27:03;;;;;;;;;;;;;;;8.56;100.00;100965.56;2615724;36;20036;-48
2022/04/22 05:34:54;;;;;;;;;;;;;;;8.63;100.00;100965.06;2611860;36;19953;-51
2022/04/22 05:37:22;;;;;;;;;;;;;;;8.66;100.00;100976.44;2606610;31;20581;-50
2022/04/22 05:39:50;;;;;;;;;;;;;;;8.69;100.00;100965.47;2611465;36;20039;-47
2022/04/22 05:42:18;;;;;;;;;;;;;;;8.76;100.00;100965.84;2610166;36;20062;-52
2022/04/22 05:44:49;;;;;;;;;;;;;;;8.76;100.00;100965.84;2611746;36;20041;-52
2022/04/22 05:47:17;;;;;;;;;;;;;;;8.71;100.00;100968.88;2613658;36;20429;-51
2022/04/22 05:49:45;;;;;;;;;;;;;;;8.92;100.00;100970.81;2614292;31;20453;-51
2022/04/22 05:52:13;;;;;;;;;;;;;;;8.97;100.00;100970.47;2612943;36;20529;-50
2022/04/22 05:54:41;;;;;;;;;;;;;;;8.91;100.00;100975.34;2612823;36;20108;-54
2022/04/22 05:57:09;;;;;;;;;;;;;;;9.02;100.00;100970.94;2615464;36;20050;-56
2022/04/22 05:59:37;;;;;;;;;;;;;;;9.08;100.00;100979.38;2615374;36;20073;-52
2022/04/22 06:02:08;;;;;;;;;;;;;;;9.25;100.00;100975.31;2614546;31;19954;-54
2022/04/22 06:04:36;;;;;;;;;;;;;;;9.27;100.00;100969.81;2615017;36;19989;-53
2022/04/22 06:07:04;;;;;;;;;;;;;;;9.26;100.00;100973.47;2616798;36;20071;-52
2022/04/22 06:12:13;;;;;;;;;;;;;;;9.49;100.00;100962.69;2615838;36;19950;-51
2022/04/22 06:14:41;;;;;;;;;;;;;;;9.45;100.00;100959.38;2616276;36;20026;-51
2022/04/22 06:17:11;;;;;;;;;;;;;;;9.55;100.00;100956.78;2615780;36;19966;-50
2022/04/22 06:19:39;;;;;;;;;;;;;;;9.58;100.00;100962.75;2614665;36;20038;-55
2022/04/22 06:22:07;;;;;;;;;;;;;;;9.64;100.00;100967.66;2615904;36;20037;-56
2022/04/22 06:24:35;;;;;;;;;;;;;;;9.53;100.00;100953.41;2615698;36;20045;-56
2022/04/22 06:27:03;;;;;;;;;;;;;;;9.66;100.00;100940.66;2615309;36;21121;-54
2022/04/22 06:29:31;;;;;;;;;;;;;;;9.78;100.00;100944.13;2614068;36;21658;-54
2022/04/22 06:32:00;;;;;;;;;;;;;;;9.91;100.00;100942.13;2616170;31;20440;-49
2022/04/22 06:34:30;;;;;;;;;;;;;;;9.99;100.00;100936.94;2615984;36;20038;-54
2022/04/22 06:36:59;;;;;;;;;;;;;;;10.07;100.00;100941.69;2616851;36;20578;-51
2022/04/22 06:45:46;;;;;;;;;;;;;;;10.19;100.00;100942.47;2616371;36;20026;-54
2022/04/22 06:47:37;;;;;;;;;;;;;;;10.47;100.00;100938.25;2616178;36;20054;-50
2022/04/22 06:50:09;;;;;;;;;;;;;;;10.49;100.00;100936.28;2599887;36;19943;-56
2022/04/22 06:52:37;;;;;;;;;;;;;;;10.76;100.00;100932.19;2616787;36;20022;-52
2022/04/22 06:55:05;;;;;;;;;;;;;;;10.66;100.00;100936.66;2617265;31;20445;-53
2022/04/22 06:57:33;;;;;;;;;;;;;;;10.75;100.00;100935.84;2615157;36;20038;-54
2022/04/22 07:00:02;;;;;;;;;;;;;;;10.97;100.00;100944.72;2614219;36;20042;-52
2022/04/22 07:02:30;;;;;;;;;;;;;;;11.07;100.00;100940.22;2614907;36;20026;-49
2022/04/22 07:04:59;;;;;;;;;;;;;;;11.22;100.00;100933.44;2615120;31;19951;-52
2022/04/22 07:07:29;;;;;;;;;;;;;;;11.34;100.00;100930.63;2614456;36;20078;-50
2022/04/22 07:09:58;;;;;;;;;;;;;;;11.27;100.00;100932.16;2615450;36;20051;-56
2022/04/22 07:12:28;;;;;;;;;;;;;;;11.40;100.00;100930.06;2614669;36;19950;-50
2022/04/22 07:15:03;;;;;;;;;;;;;;;11.44;100.00;100923.41;2614743;36;19957;-50
2022/04/22 07:17:31;;;;;;;;;;;;;;;11.78;100.00;100923.00;2614039;36;20037;-55
2022/04/22 07:19:59;;;;;;;;;;;;;;;11.71;100.00;100921.84;2615196;36;20013;-56
2022/04/22 07:22:30;;;;;;;;;;;;;;;11.81;100.00;100917.31;2615794;36;20005;-51
2022/04/22 07:24:58;;;;;;;;;;;;;;;11.69;100.00;100927.41;2615732;36;20030;-56
2022/04/22 07:27:28;;;;;;;;;;;;;;;11.56;100.00;100922.28;2615926;36;20045;-51
2022/04/22 07:29:57;;;;;;;;;;;;;;;11.76;100.00;100919.56;2615023;36;20465;-53
2022/04/22 07:32:25;;;;;;;;;;;;;;;11.83;100.00;100915.31;2612487;36;20001;-53
2022/04/22 07:34:53;;;;;;;;;;;;;;;11.97;100.00;100910.50;2615645;31;20516;-55
2022/04/22 07:37:22;;;;;;;;;;;;;;;12.13;100.00;100910.78;2616668;31;20448;-53
2022/04/22 07:39:53;;;;;;;;;;;;;;;12.15;100.00;100911.47;2614895;36;20351;-56
2022/04/22 07:42:22;;;;;;;;;;;;;;;12.42;100.00;100905.28;2614526;36;19984;-54
2022/04/22 07:47:31;;;;;;;;;;;;;;;12.53;100.00;100890.78;2614954;36;19939;-51
2022/04/22 07:50:00;;;;;;;;;;;;;;;12.86;100.00;100890.34;2614643;36;20026;-54
2022/04/22 07:52:28;;;;;;;;;;;;;;;12.90;100.00;100891.75;2615797;31;20462;-55
2022/04/22 07:54:59;;;;;;;;;;;;;;;12.88;100.00;100882.91;2615774;36;20073;-54
2022/04/22 07:57:27;;;;;;;;;;;;;;;12.97;100.00;100888.28;2614608;36;20082;-51
2022/04/22 07:59:55;;;;;;;;;;;;;;;13.02;100.00;100897.78;2614711;36;21589;-55
2022/04/22 08:02:23;;;;;;;;;;;;;;;13.28;100.00;100890.66;2614915;36;20086;-49
2022/04/22 08:04:51;;;;;;;;;;;;;;;13.30;100.00;100899.44;2603058;36;19947;-50
2022/04/22 08:07:20;;;;;;;;;;;;;;;13.25;100.00;100890.94;2613990;31;20045;-51
2022/04/22 08:09:48;;;;;;;;;;;;;;;13.23;100.00;100892.94;2612194;36;19974;-53
2022/04/22 08:12:19;;;;;;;;;;;;;;;13.22;100.00;100902.06;2614538;36;20332;-52
2022/04/22 08:14:47;;;;;;;;;;;;;;;13.04;100.00;100899.31;2615033;36;19951;-47
2022/04/22 08:17:16;;;;;;;;;;;;;;;13.06;100.00;100899.16;2613853;31;20033;-53
2022/04/22 08:19:46;;;;;;;;;;;;;;;13.30;100.00;100896.72;2614111;36;19950;-50
2022/04/22 08:22:14;;;;;;;;;;;;;;;13.14;100.00;100910.91;2615154;31;19954;-53
2022/04/22 08:24:42;;;;;;;;;;;;;;;13.36;100.00;100899.88;2614541;36;19983;-53
2022/04/22 08:27:10;;;;;;;;;;;;;;;13.18;100.00;100892.56;2614321;36;20038;-51
2022/04/22 08:29:42;;;;;;;;;;;;;;;13.41;100.00;100890.31;2615021;36;19961;-52
2022/04/22 08:32:10;;;;;;;;;;;;;;;13.49;100.00;100889.53;2615037;36;19954;-52
2022/04/22 08:34:38;;;;;;;;;;;;;;;13.48;100.00;100885.13;2614521;36;20061;-58
2022/04/22 08:37:06;;;;;;;;;;;;;;;13.69;100.00;100881.25;2613032;36;20049;-57
2022/04/22 08:39:34;;;;;;;;;;;;;;;13.68;100.00;100875.00;2611752;31;20033;-54
2022/04/22 08:42:03;;;;;;;;;;;;;;;13.81;100.00;100874.59;2612823;36;19957;-52
2022/04/22 08:44:32;;;;;;;;;;;;;;;13.73;100.00;100866.41;2613758;36;20037;-52
2022/04/22 08:52:24;;;;;;;;;;;;;;;13.90;100.00;100868.25;2614412;36;20006;-54
2022/04/22 08:54:55;;;;;;;;;;;;;;;13.94;100.00;100879.59;2613747;36;20010;-55
2022/04/22 08:57:23;;;;;;;;;;;;;;;14.01;100.00;100870.66;2614033;36;19954;-57
2022/04/22 08:59:51;;;;;;;;;;;;;;;13.96;100.00;100872.19;2615348;31;19951;-57
2022/04/22 09:02:22;;;;;;;;;;;;;;;13.58;100.00;100874.22;2615104;36;19968;-55
2022/04/22 09:04:50;;;;;;;;;;;;;;;13.74;100.00;100877.06;2607705;31;20528;-55
2022/04/22 09:07:22;;;;;;;;;;;;;;;13.95;100.00;100876.72;2614662;36;19951;-51
2022/04/22 09:09:50;;;;;;;;;;;;;;;14.12;100.00;100866.88;2614751;36;20054;-52
2022/04/22 09:12:21;;;;;;;;;;;;;;;14.25;100.00;100866.44;2613818;36;20423;-52
2022/04/22 09:14:51;;;;;;;;;;;;;;;14.53;100.00;100871.66;2601655;36;19973;-53
2022/04/22 09:17:23;;;;;;;;;;;;;;;14.54;100.00;100865.22;2612398;36;19954;-51
2022/04/22 09:19:55;;;;;;;;;;;;;;;14.60;100.00;100859.16;2610034;36;19946;-52
2022/04/22 09:22:23;;;;;;;;;;;;;;;14.82;100.00;100859.63;2612299;36;20045;-56
2022/04/22 09:24:52;;;;;;;;;;;;;;;15.12;100.00;100854.63;2615218;31;20099;-56
2022/04/22 09:27:21;;;;;;;;;;;;;;;15.21;100.00;100851.78;2614466;36;20064;-58
2022/04/22 09:29:56;;;;;;;;;;;;;;;15.45;100.00;100851.97;2613148;36;19951;-54
2022/04/22 09:32:25;;;;;;;;;;;;;;;15.66;100.00;100855.00;2613469;36;20010;-53
2022/04/22 09:34:58;;;;;;;;;;;;;;;15.68;100.00;100842.16;2613089;36;19950;-56
2022/04/22 09:42:49;;;;;;;;;;;;;;;15.62;100.00;100831.97;2615042;36;19950;-54
2022/04/22 09:45:17;;;;;;;;;;;;;;;15.89;100.00;100821.81;2613165;36;20447;-55
2022/04/22 09:47:45;;;;;;;;;;;;;;;16.17;100.00;100830.41;2610761;36;20427;-57
2022/04/22 09:50:18;;;;;;;;;;;;;;;16.21;100.00;100830.88;2612466;36;20610;-56
2022/04/22 09:52:46;;;;;;;;;;;;;;;16.04;100.00;100824.66;2613403;36;19954;-51
2022/04/22 09:55:16;;;;;;;;;;;;;;;16.19;100.00;100820.19;2614765;36;19954;-53
2022/04/22 09:57:54;;;;;;;;;;;;;;;15.53;100.00;100811.28;2614551;36;19958;-55
2022/04/22 10:00:22;;;;;;;;;;;;;;;15.57;100.00;100812.63;2614755;36;19947;-54
2022/04/22 10:02:52;;;;;;;;;;;;;;;15.61;100.00;100819.41;2613843;36;19950;-53
2022/04/22 10:05:24;;;;;;;;;;;;;;;15.70;100.00;100809.41;2613744;36;19985;-54
2022/04/22 10:07:53;;;;;;;;;;;;;;;15.67;96.65;100820.63;2615249;36;20242;-57
2022/04/22 10:10:23;;;;;;;;;;;;;;;15.87;95.50;100812.97;2615051;36;20045;-53
2022/04/22 10:12:52;;;;;;;;;;;;;;;16.04;90.72;100806.50;2608818;36;19951;-55
2022/04/22 10:15:20;;;;;;;;;;;;;;;16.00;90.88;100807.84;2615417;36;19939;-50
2022/04/22 10:17:49;;;;;;;;;;;;;;;16.08;79.17;100799.69;2615058;36;19946;-53
2022/04/22 10:20:18;;;;;;;;;;;;;;;16.49;75.92;100806.88;2612461;36;19974;-55
2022/04/22 10:22:48;;;;;;;;;;;;;;;16.59;71.83;100801.22;2606658;36;20173;-57
2022/04/22 10:25:17;;;;;;;;;;;;;;;16.58;68.90;100799.53;2612750;36;20041;-54
2022/04/22 10:27:46;;;;;;;;;;;;;;;16.55;66.33;100780.84;2614804;36;20904;-59
2022/04/22 10:30:15;;;;;;;;;;;;;;;16.45;63.97;100781.06;2614485;31;19962;-59
2022/04/22 10:32:45;;;;;;;;;;;;;;;16.52;62.82;100773.91;2615096;36;20038;-57
2022/04/22 10:35:15;;;;;;;;;;;;;;;16.58;62.85;100772.38;2614447;36;19958;-58
2022/04/22 10:37:44;;;;;;;;;;;;;;;16.63;61.34;100775.38;2613331;36;20480;-57
2022/04/22 10:40:24;;;;;;;;;;;;;;;16.85;63.27;100762.00;2614970;36;19950;-57
2022/04/22 10:42:55;;;;;;;;;;;;;;;16.49;63.98;100765.25;2615853;36;19950;-56
2022/04/22 10:48:19;;;;;;;;;;;;;;;17.41;63.71;100762.63;2631226;31;19954;-59
2022/04/22 10:50:57;;;;;;;;;;;;;;;17.36;58.37;100753.31;2614935;31;20316;-57
2022/04/22 10:53:26;;;;;;;;;;;;;;;16.78;59.50;100751.88;2613770;31;20043;-59
2022/04/22 10:56:16;;;;;;;;;;;;;;;17.22;61.23;100746.81;2616103;36;19943;-59
2022/04/22 10:58:47;;;;;;;;;;;;;;;17.51;62.64;100749.59;2614740;36;20412;-57
2022/04/22 11:01:31;;;;;;;;;;;;;;;17.57;59.49;100747.19;2615100;36;20025;-59
2022/04/22 11:03:59;;;;;;;;;;;;;;;17.57;58.12;100741.75;2617190;31;20347;-58
2022/04/22 11:06:27;;;;;;;;;;;;;;;17.98;58.80;100742.19;2615062;36;19954;-55
2022/04/22 11:09:02;;;;;;;;;;;;;;;17.61;58.73;100745.78;2615536;36;20375;-58
2022/04/22 11:11:41;;;;;;;;;;;;;;;17.62;57.38;100742.03;2617071;31;20448;-58
2022/04/22 11:14:23;;;;;;;;;;;;;;;17.68;58.31;100730.38;2615334;36;20329;-58
2022/04/22 11:16:51;;;;;;;;;;;;;;;17.75;58.14;100725.88;2616813;31;20423;-57
2022/04/22 11:19:36;;;;;;;;;;;;;;;17.87;56.48;100731.72;2615346;36;19985;-58
2022/04/22 11:22:07;;;;;;;;;;;;;;;18.20;56.50;100726.75;2613849;36;20006;-58
2022/04/22 11:24:36;;;;;;;;;;;;;;;18.12;58.14;100718.69;2607067;36;19981;-59
2022/04/22 11:27:05;;;;;;;;;;;;;;;17.85;58.35;100721.00;2615443;36;19946;-56
2022/04/22 11:29:36;;;;;;;;;;;;;;;17.92;57.96;100709.41;2608322;36;20416;-57
2022/04/22 11:32:06;;;;;;;;;;;;;;;17.80;58.88;100711.72;2614434;36;19951;-58
2022/04/22 11:34:57;;;;;;;;;;;;;;;18.08;56.21;100714.69;2615480;36;19947;-58
2022/04/22 11:37:26;;;;;;;;;;;;;;;17.57;56.37;100706.38;2615242;36;19950;-60
2022/04/22 11:39:54;;;;;;;;;;;;;;;18.13;55.75;100711.38;2615735;36;20535;-56
2022/04/22 11:42:22;;;;;;;;;;;;;;;18.30;55.76;100701.09;2614031;31;19953;-58
2022/04/22 11:45:05;;;;;;;;;;;;;;;18.36;55.52;100697.63;2615299;36;19950;-58
2022/04/22 11:47:36;;;;;;;;;;;;;;;18.00;54.58;100707.44;2615510;36;19943;-57
2022/04/22 11:50:05;;;;;;;;;;;;;;;18.02;55.82;100682.72;2614860;36;20001;-57
2022/04/22 11:52:33;;;;;;;;;;;;;;;18.23;56.13;100694.72;2614520;36;19950;-57
2022/04/22 11:55:03;;;;;;;;;;;;;;;18.21;54.80;100703.94;2614890;36;20026;-59
2022/04/22 11:57:34;;;;;;;;;;;;;;;18.32;55.05;100696.31;2614669;36;19956;-58
2022/04/22 12:05:37;;;;;;;;;;;;;;;18.30;54.66;100687.47;2612643;36;20382;-58
2022/04/22 12:08:11;;;;;;;;;;;;;;;18.47;55.45;100677.19;2614625;31;19946;-57
2022/04/22 12:10:39;;;;;;;;;;;;;;;18.73;55.53;100669.31;2613447;36;20416;-54
2022/04/22 12:13:08;;;;;;;;;;;;;;;18.96;54.39;100660.09;2615482;31;20430;-58
2022/04/22 12:15:39;;;;;;;;;;;;;;;19.12;53.50;100661.69;2614325;36;19950;-58
2022/04/22 12:18:09;;;;;;;;;;;;;;;19.16;53.86;100662.16;2615111;36;19958;-57
2022/04/22 12:20:37;;;;;;;;;;;;;;;19.48;51.10;100660.72;2614834;36;20062;-58
2022/04/22 12:23:06;;;;;;;;;;;;;;;19.37;53.77;100664.00;2615320;31;20025;-59
2022/04/22 12:25:34;;;;;;;;;;;;;;;19.82;51.67;100656.34;2613981;36;21121;-58
2022/04/22 12:28:11;;;;;;;;;;;;;;;20.05;49.58;100655.16;2615505;36;19959;-59
2022/04/22 12:30:39;;;;;;;;;;;;;;;19.99;48.94;100650.50;2608568;31;19954;-58
2022/04/22 12:33:18;;;;;;;;;;;;;;;20.23;48.62;100641.78;2614945;36;19965;-58
2022/04/22 12:35:48;;;;;;;;;;;;;;;20.66;48.52;100651.59;2614937;36;19954;-58
2022/04/22 12:38:18;;;;;;;;;;;;;;;20.72;47.45;100649.94;2612259;36;20038;-59
2022/04/22 12:40:51;;;;;;;;;;;;;;;20.65;48.03;100637.03;2615509;36;19957;-59
2022/04/22 12:43:27;;;;;;;;;;;;;;;20.15;47.06;100639.22;2615457;36;19938;-58
2022/04/22 12:54:07;;;;;;;;;;;;;;;20.00;49.09;100627.63;2615088;36;20015;-57
2022/04/22 12:56:36;;;;;;;;;;;;;;;20.24;49.28;100620.75;2614709;31;20525;-59
2022/04/22 12:59:05;;;;;;;;;;;;;;;20.52;46.14;100615.13;2614379;36;19951;-58
2022/04/22 13:01:35;;;;;;;;;;;;;;;20.27;46.91;100618.47;2614233;36;19993;-59
2022/04/22 13:04:06;;;;;;;;;;;;;;;20.45;48.80;100630.69;2611984;36;19954;-59
2022/04/22 13:06:37;;;;;;;;;;;;;;;20.42;45.87;100625.63;2614705;36;19946;-59
2022/04/22 13:09:06;;;;;;;;;;;;;;;20.76;48.05;100607.41;2614199;36;19981;-58
2022/04/22 13:11:34;;;;;;;;;;;;;;;20.79;46.87;100612.50;2614872;36;19947;-59
2022/04/22 13:14:02;;;;;;;;;;;;;;;20.84;46.00;100612.69;2615110;36;20037;-60
2022/04/22 13:16:30;;;;;;;;;;;;;;;20.94;46.23;100620.47;2614634;36;19938;-60
2022/04/22 13:18:59;;;;;;;;;;;;;;;20.15;48.22;100617.38;2615392;36;19957;-59
2022/04/22 13:21:29;;;;;;;;;;;;;;;20.13;48.37;100616.75;2615031;36;20033;-58
2022/04/22 13:24:02;;;;;;;;;;;;;;;20.15;48.53;100617.38;2614181;36;20071;-58
2022/04/22 13:26:30;;;;;;;;;;;;;;;19.95;49.22;100614.59;2614818;36;19959;-59
2022/04/22 13:28:58;;;;;;;;;;;;;;;20.27;49.03;100615.75;2613615;36;19939;-59
2022/04/22 13:31:26;;;;;;;;;;;;;;;20.22;50.04;100612.78;2608512;36;19962;-58
2022/04/22 13:33:54;;;;;;;;;;;;;;;19.77;51.27;100615.09;2615246;36;19958;-58
2022/04/22 13:36:22;;;;;;;;;;;;;;;20.67;47.70;100611.41;2608381;36;20050;-58
2022/04/22 13:38:53;;;;;;;;;;;;;;;20.71;48.12;100613.50;2605911;36;20079;-58
2022/04/22 13:41:21;;;;;;;;;;;;;;;20.82;47.02;100599.22;2612268;36;20026;-59
2022/04/22 13:43:49;;;;;;;;;;;;;;;20.59;48.21;100602.31;2612868;31;20481;-57
2022/04/22 13:54:21;;;;;;;;;;;;;;;19.44;48.49;100599.38;2611931;36;19942;-58
2022/04/22 13:56:49;;;;;;;;;;;;;;;19.19;49.25;100596.28;2611913;36;20091;-59
2022/04/22 13:59:17;;;;;;;;;;;;;;;19.22;49.13;100595.88;2612383;36;19994;-57
2022/04/22 14:01:45;;;;;;;;;;;;;;;19.75;51.59;100600.81;2611901;36;19954;-58
2022/04/22 14:04:13;;;;;;;;;;;;;;;20.43;48.18;100591.78;2613452;31;19958;-58